sensor_id;sensor_type;location;lat;lon;timestamp;pressure;altitude;pressure_sealevel;temperature;humidity
498;BME280;39559;48.630;9.162;2022-08-19T00:02:05;97035.75;;;18.51;100.00
498;BME280;39559;48.630;9.162;2022-08-19T00:04:34;97029.25;;;18.55;100.00
498;BME280;39559;48.630;9.162;2022-08-19T00:07:03;97025.94;;;18.53;100.00
498;BME280;39559;48.630;9.162;2022-08-19T00:09:29;97030.84;;;18.46;100.00
498;BME280;39559;48.630;9.162;2022-08-19T00:11:56;97039.59;;;18.35;100.00
498;BME280;39559;48.630;9.162;2022-08-19T00:14:24;97040.69;;;18.33;100.00
498;BME280;39559;48.630;9.162;2022-08-19T00:16:51;97039.38;;;18.38;100.00
498;BME280;39559;48.630;9.162;2022-08-19T00:19:19;97040.06;;;18.40;100.00
498;BME280;39559;48.630;9.162;2022-08-19T00:23:36;97034.34;;;18.35;100.00
498;BME280;39559;48.630;9.162;2022-08-19T00:26:05;97032.56;;;18.36;100.00
498;BME280;39559;48.630;9.162;2022-08-19T00:28:31;97028.66;;;18.30;100.00
498;BME280;39559;48.630;9.162;2022-08-19T00:30:59;97013.31;;;18.35;100.00
498;BME280;39559;48.630;9.162;2022-08-19T00:33:25;97016.81;;;18.36;100.00
498;BME280;39559;48.630;9.162;2022-08-19T00:35:50;97003.06;;;18.32;100.00
498;BME280;39559;48.630;9.162;2022-08-19T00:38:16;97000.50;;;18.21;100.00
498;BME280;39559;48.630;9.162;2022-08-19T00:40:43;97004.69;;;18.12;100.00
498;BME280;39559;48.630;9.162;2022-08-19T00:43:12;97003.06;;;18.00;100.00
498;BME280;39559;48.630;9.162;2022-08-19T00:47:29;97009.75;;;17.81;100.00
498;BME280;39559;48.630;9.162;2022-08-19T00:49:57;97022.75;;;17.72;100.00
498;BME280;39559;48.630;9.162;2022-08-19T00:52:34;97020.75;;;17.64;100.00
498;BME280;39559;48.630;9.162;2022-08-19T00:55:04;97030.53;;;17.62;100.00
498;BME280;39559;48.630;9.162;2022-08-19T00:57:35;97026.84;;;17.64;100.00
498;BME280;39559;48.630;9.162;2022-08-19T01:00:06;97029.47;;;17.64;100.00
498;BME280;39559;48.630;9.162;2022-08-19T01:02:33;97025.16;;;17.63;100.00
498;BME280;39559;48.630;9.162;2022-08-19T01:05:03;97026.72;;;17.66;100.00
498;BME280;39559;48.630;9.162;2022-08-19T01:07:30;97029.47;;;17.64;100.00
498;BME280;39559;48.630;9.162;2022-08-19T01:11:30;97016.44;;;17.52;100.00
498;BME280;39559;48.630;9.162;2022-08-19T01:13:57;97013.00;;;17.51;100.00
498;BME280;39559;48.630;9.162;2022-08-19T01:16:25;97020.16;;;17.49;100.00
498;BME280;39559;48.630;9.162;2022-08-19T01:18:52;97015.28;;;17.44;100.00
498;BME280;39559;48.630;9.162;2022-08-19T01:23:52;97022.53;;;17.18;100.00
498;BME280;39559;48.630;9.162;2022-08-19T01:26:22;97017.06;;;17.21;100.00
498;BME280;39559;48.630;9.162;2022-08-19T01:28:49;97014.66;;;17.18;100.00
498;BME280;39559;48.630;9.162;2022-08-19T01:31:19;97006.56;;;17.21;100.00
498;BME280;39559;48.630;9.162;2022-08-19T01:35:22;97013.34;;;17.13;100.00
498;BME280;39559;48.630;9.162;2022-08-19T01:38:10;97006.09;;;17.16;100.00
498;BME280;39559;48.630;9.162;2022-08-19T01:40:38;97002.38;;;17.07;100.00
498;BME280;39559;48.630;9.162;2022-08-19T01:43:05;97006.69;;;17.08;100.00
498;BME280;39559;48.630;9.162;2022-08-19T01:45:37;97000.34;;;17.11;100.00
498;BME280;39559;48.630;9.162;2022-08-19T01:48:06;96998.91;;;17.07;100.00
498;BME280;39559;48.630;9.162;2022-08-19T01:50:33;97002.25;;;17.09;100.00
498;BME280;39559;48.630;9.162;2022-08-19T01:53:04;97009.03;;;17.00;100.00
498;BME280;39559;48.630;9.162;2022-08-19T01:55:30;97006.41;;;17.00;100.00
498;BME280;39559;48.630;9.162;2022-08-19T01:59:19;97009.41;;;17.07;100.00
498;BME280;39559;48.630;9.162;2022-08-19T02:01:48;97007.28;;;17.01;100.00
498;BME280;39559;48.630;9.162;2022-08-19T02:04:14;97011.53;;;17.02;100.00
498;BME280;39559;48.630;9.162;2022-08-19T02:06:41;97004.66;;;17.01;100.00
498;BME280;39559;48.630;9.162;2022-08-19T02:09:07;97005.47;;;17.01;100.00
498;BME280;39559;48.630;9.162;2022-08-19T02:11:34;97002.97;;;17.00;100.00
498;BME280;39559;48.630;9.162;2022-08-19T02:14:03;97000.81;;;17.05;100.00
498;BME280;39559;48.630;9.162;2022-08-19T02:16:29;97001.28;;;16.99;100.00
498;BME280;39559;48.630;9.162;2022-08-19T02:18:55;97004.16;;;16.96;100.00
498;BME280;39559;48.630;9.162;2022-08-19T02:23:11;97004.50;;;16.91;100.00
498;BME280;39559;48.630;9.162;2022-08-19T02:25:37;97016.06;;;16.88;100.00
498;BME280;39559;48.630;9.162;2022-08-19T02:28:04;97017.22;;;16.84;100.00
498;BME280;39559;48.630;9.162;2022-08-19T02:30:32;97014.81;;;16.81;100.00
498;BME280;39559;48.630;9.162;2022-08-19T02:33:00;97005.31;;;16.92;100.00
498;BME280;39559;48.630;9.162;2022-08-19T02:35:26;97000.22;;;16.90;100.00
498;BME280;39559;48.630;9.162;2022-08-19T02:37:51;96998.31;;;16.92;100.00
498;BME280;39559;48.630;9.162;2022-08-19T02:40:35;96997.00;;;16.86;100.00
498;BME280;39559;48.630;9.162;2022-08-19T02:43:07;96991.97;;;16.83;100.00
498;BME280;39559;48.630;9.162;2022-08-19T02:47:07;96996.31;;;16.72;100.00
498;BME280;39559;48.630;9.162;2022-08-19T02:49:33;96988.59;;;16.81;100.00
498;BME280;39559;48.630;9.162;2022-08-19T02:51:58;96988.94;;;16.77;100.00
498;BME280;39559;48.630;9.162;2022-08-19T02:54:24;96987.84;;;16.68;100.00
498;BME280;39559;48.630;9.162;2022-08-19T02:56:49;96982.84;;;16.65;100.00
498;BME280;39559;48.630;9.162;2022-08-19T02:59:15;96994.97;;;16.66;100.00
498;BME280;39559;48.630;9.162;2022-08-19T03:01:41;96993.34;;;16.65;100.00
498;BME280;39559;48.630;9.162;2022-08-19T03:04:09;96992.47;;;16.64;100.00
498;BME280;39559;48.630;9.162;2022-08-19T03:06:39;96998.78;;;16.62;100.00
498;BME280;39559;48.630;9.162;2022-08-19T03:11:03;97001.09;;;16.66;100.00
498;BME280;39559;48.630;9.162;2022-08-19T03:13:29;97012.41;;;16.67;100.00
498;BME280;39559;48.630;9.162;2022-08-19T03:15:55;97011.81;;;16.75;100.00
498;BME280;39559;48.630;9.162;2022-08-19T03:18:20;97007.19;;;16.78;100.00
498;BME280;39559;48.630;9.162;2022-08-19T03:20:48;97004.72;;;16.88;100.00
498;BME280;39559;48.630;9.162;2022-08-19T03:23:15;97005.56;;;16.88;100.00
498;BME280;39559;48.630;9.162;2022-08-19T03:25:44;96998.88;;;16.84;100.00
498;BME280;39559;48.630;9.162;2022-08-19T03:28:12;96999.00;;;16.83;100.00
498;BME280;39559;48.630;9.162;2022-08-19T03:30:40;97005.91;;;16.95;100.00
498;BME280;39559;48.630;9.162;2022-08-19T03:35:00;97005.91;;;16.84;100.00
498;BME280;39559;48.630;9.162;2022-08-19T03:37:25;97007.88;;;16.69;100.00
498;BME280;39559;48.630;9.162;2022-08-19T03:39:51;97011.09;;;16.73;100.00
498;BME280;39559;48.630;9.162;2022-08-19T03:42:17;97000.38;;;16.76;100.00
498;BME280;39559;48.630;9.162;2022-08-19T03:44:42;97000.63;;;16.73;100.00
498;BME280;39559;48.630;9.162;2022-08-19T03:47:09;96994.28;;;16.75;100.00
498;BME280;39559;48.630;9.162;2022-08-19T03:49:40;97003.31;;;16.60;100.00
498;BME280;39559;48.630;9.162;2022-08-19T03:52:06;97006.78;;;16.60;100.00
498;BME280;39559;48.630;9.162;2022-08-19T03:54:32;97016.94;;;16.65;100.00
498;BME280;39559;48.630;9.162;2022-08-19T03:58:52;97020.72;;;16.61;100.00
498;BME280;39559;48.630;9.162;2022-08-19T04:01:21;97024.00;;;16.51;100.00
498;BME280;39559;48.630;9.162;2022-08-19T04:03:48;97021.63;;;16.48;100.00
498;BME280;39559;48.630;9.162;2022-08-19T04:06:22;97017.72;;;16.54;100.00
498;BME280;39559;48.630;9.162;2022-08-19T04:08:50;97017.25;;;16.60;100.00
498;BME280;39559;48.630;9.162;2022-08-19T04:11:22;97023.91;;;16.53;100.00
498;BME280;39559;48.630;9.162;2022-08-19T04:13:50;97022.25;;;16.52;100.00
498;BME280;39559;48.630;9.162;2022-08-19T04:16:18;97017.50;;;16.57;100.00
498;BME280;39559;48.630;9.162;2022-08-19T04:18:45;97017.63;;;16.56;100.00
498;BME280;39559;48.630;9.162;2022-08-19T04:22:50;97007.56;;;16.49;100.00
498;BME280;39559;48.630;9.162;2022-08-19T04:25:16;97011.03;;;16.50;100.00
498;BME280;39559;48.630;9.162;2022-08-19T04:27:41;97008.19;;;16.53;100.00
498;BME280;39559;48.630;9.162;2022-08-19T04:30:12;97009.88;;;16.54;100.00
498;BME280;39559;48.630;9.162;2022-08-19T04:32:38;97011.50;;;16.55;100.00
498;BME280;39559;48.630;9.162;2022-08-19T04:35:04;97017.78;;;16.41;100.00
498;BME280;39559;48.630;9.162;2022-08-19T04:37:30;97013.00;;;16.35;100.00
498;BME280;39559;48.630;9.162;2022-08-19T04:39:57;97015.50;;;16.37;100.00
498;BME280;39559;48.630;9.162;2022-08-19T04:42:41;97017.91;;;16.40;100.00
498;BME280;39559;48.630;9.162;2022-08-19T04:46:48;97011.28;;;16.58;100.00
498;BME280;39559;48.630;9.162;2022-08-19T04:49:15;97004.84;;;16.51;100.00
498;BME280;39559;48.630;9.162;2022-08-19T04:51:44;97005.19;;;16.46;100.00
498;BME280;39559;48.630;9.162;2022-08-19T04:54:12;97009.75;;;16.56;100.00
498;BME280;39559;48.630;9.162;2022-08-19T04:56:39;97014.75;;;16.59;100.00
498;BME280;39559;48.630;9.162;2022-08-19T04:59:04;97014.31;;;16.65;100.00
498;BME280;39559;48.630;9.162;2022-08-19T05:01:31;97013.13;;;16.69;100.00
498;BME280;39559;48.630;9.162;2022-08-19T05:04:03;97022.41;;;16.73;100.00
498;BME280;39559;48.630;9.162;2022-08-19T05:06:30;97030.06;;;16.76;100.00
498;BME280;39559;48.630;9.162;2022-08-19T05:10:42;97042.22;;;16.77;100.00
498;BME280;39559;48.630;9.162;2022-08-19T05:13:07;97048.69;;;16.84;100.00
498;BME280;39559;48.630;9.162;2022-08-19T05:15:34;97058.03;;;16.88;100.00
498;BME280;39559;48.630;9.162;2022-08-19T05:18:00;97065.78;;;16.90;100.00
498;BME280;39559;48.630;9.162;2022-08-19T05:20:45;97077.59;;;16.96;100.00
498;BME280;39559;48.630;9.162;2022-08-19T05:23:28;97089.84;;;16.95;100.00
498;BME280;39559;48.630;9.162;2022-08-19T05:25:54;97092.88;;;17.02;100.00
498;BME280;39559;48.630;9.162;2022-08-19T05:28:20;97098.72;;;17.05;100.00
498;BME280;39559;48.630;9.162;2022-08-19T05:30:45;97109.09;;;17.07;100.00
498;BME280;39559;48.630;9.162;2022-08-19T05:34:38;97111.38;;;17.12;100.00
498;BME280;39559;48.630;9.162;2022-08-19T05:37:05;97108.28;;;17.18;100.00
498;BME280;39559;48.630;9.162;2022-08-19T05:39:32;97115.09;;;17.32;100.00
498;BME280;39559;48.630;9.162;2022-08-19T05:42:02;97100.34;;;17.42;100.00
498;BME280;39559;48.630;9.162;2022-08-19T05:44:30;97103.41;;;17.24;100.00
498;BME280;39559;48.630;9.162;2022-08-19T05:47:00;97111.78;;;17.30;100.00
498;BME280;39559;48.630;9.162;2022-08-19T05:49:28;97101.97;;;17.32;100.00
498;BME280;39559;48.630;9.162;2022-08-19T05:51:54;97097.72;;;17.31;100.00
498;BME280;39559;48.630;9.162;2022-08-19T05:54:21;97103.44;;;17.36;100.00
498;BME280;39559;48.630;9.162;2022-08-19T05:58:36;97102.97;;;17.53;100.00
498;BME280;39559;48.630;9.162;2022-08-19T06:01:03;97095.59;;;17.58;100.00
498;BME280;39559;48.630;9.162;2022-08-19T06:03:34;97103.94;;;17.63;100.00
498;BME280;39559;48.630;9.162;2022-08-19T06:06:01;97102.03;;;17.54;100.00
498;BME280;39559;48.630;9.162;2022-08-19T06:08:28;97101.44;;;17.62;100.00
498;BME280;39559;48.630;9.162;2022-08-19T06:10:54;97102.75;;;17.68;100.00
498;BME280;39559;48.630;9.162;2022-08-19T06:13:20;97102.50;;;17.71;100.00
498;BME280;39559;48.630;9.162;2022-08-19T06:15:46;97109.19;;;17.75;100.00
498;BME280;39559;48.630;9.162;2022-08-19T06:18:13;97103.94;;;17.75;100.00
498;BME280;39559;48.630;9.162;2022-08-19T06:22:29;97109.91;;;17.77;100.00
498;BME280;39559;48.630;9.162;2022-08-19T06:24:55;97104.91;;;17.74;100.00
498;BME280;39559;48.630;9.162;2022-08-19T06:27:22;97114.69;;;17.72;100.00
498;BME280;39559;48.630;9.162;2022-08-19T06:29:47;97108.59;;;17.82;100.00
498;BME280;39559;48.630;9.162;2022-08-19T06:32:15;97109.41;;;17.72;100.00
498;BME280;39559;48.630;9.162;2022-08-19T06:34:42;97116.25;;;17.74;100.00
498;BME280;39559;48.630;9.162;2022-08-19T06:37:08;97106.56;;;17.75;100.00
498;BME280;39559;48.630;9.162;2022-08-19T06:39:37;97106.78;;;17.72;100.00
498;BME280;39559;48.630;9.162;2022-08-19T06:42:05;97113.25;;;17.79;100.00
498;BME280;39559;48.630;9.162;2022-08-19T06:46:26;97117.78;;;17.77;100.00
498;BME280;39559;48.630;9.162;2022-08-19T06:48:53;97114.22;;;17.67;100.00
498;BME280;39559;48.630;9.162;2022-08-19T06:51:20;97123.75;;;17.68;100.00
498;BME280;39559;48.630;9.162;2022-08-19T06:53:48;97119.94;;;17.72;100.00
498;BME280;39559;48.630;9.162;2022-08-19T06:56:16;97129.50;;;17.73;100.00
498;BME280;39559;48.630;9.162;2022-08-19T06:58:42;97125.44;;;17.69;100.00
498;BME280;39559;48.630;9.162;2022-08-19T07:01:09;97122.56;;;17.60;100.00
498;BME280;39559;48.630;9.162;2022-08-19T07:03:38;97120.28;;;17.56;100.00
498;BME280;39559;48.630;9.162;2022-08-19T07:06:06;97127.56;;;17.63;100.00
498;BME280;39559;48.630;9.162;2022-08-19T07:10:22;97122.06;;;17.55;100.00
498;BME280;39559;48.630;9.162;2022-08-19T07:12:48;97119.81;;;17.62;100.00
498;BME280;39559;48.630;9.162;2022-08-19T07:15:15;97123.88;;;17.55;100.00
498;BME280;39559;48.630;9.162;2022-08-19T07:17:41;97131.25;;;17.50;100.00
498;BME280;39559;48.630;9.162;2022-08-19T07:20:09;97127.69;;;17.51;100.00
498;BME280;39559;48.630;9.162;2022-08-19T07:22:35;97122.81;;;17.57;100.00
498;BME280;39559;48.630;9.162;2022-08-19T07:25:00;97126.25;;;17.58;100.00
498;BME280;39559;48.630;9.162;2022-08-19T07:27:28;97121.38;;;17.64;100.00
498;BME280;39559;48.630;9.162;2022-08-19T07:29:53;97132.59;;;17.67;100.00
498;BME280;39559;48.630;9.162;2022-08-19T07:34:18;97134.47;;;17.42;100.00
498;BME280;39559;48.630;9.162;2022-08-19T07:36:44;97131.97;;;17.52;100.00
498;BME280;39559;48.630;9.162;2022-08-19T07:39:19;97133.03;;;17.38;100.00
498;BME280;39559;48.630;9.162;2022-08-19T07:41:46;97136.59;;;17.37;100.00
498;BME280;39559;48.630;9.162;2022-08-19T07:44:12;97139.84;;;17.40;100.00
498;BME280;39559;48.630;9.162;2022-08-19T07:46:41;97134.47;;;17.42;100.00
498;BME280;39559;48.630;9.162;2022-08-19T07:49:08;97132.81;;;17.41;100.00
498;BME280;39559;48.630;9.162;2022-08-19T07:51:38;97135.78;;;17.48;100.00
498;BME280;39559;48.630;9.162;2022-08-19T07:54:04;97139.38;;;17.46;100.00
498;BME280;39559;48.630;9.162;2022-08-19T07:58:17;97137.69;;;17.45;100.00
498;BME280;39559;48.630;9.162;2022-08-19T08:00:45;97133.06;;;17.49;100.00
498;BME280;39559;48.630;9.162;2022-08-19T08:03:13;97128.75;;;17.48;100.00
498;BME280;39559;48.630;9.162;2022-08-19T08:05:39;97137.69;;;17.34;100.00
498;BME280;39559;48.630;9.162;2022-08-19T08:08:23;97137.78;;;17.33;100.00
498;BME280;39559;48.630;9.162;2022-08-19T08:11:08;97138.50;;;17.23;100.00
498;BME280;39559;48.630;9.162;2022-08-19T08:13:34;97145.66;;;17.33;100.00
498;BME280;39559;48.630;9.162;2022-08-19T08:16:01;97144.44;;;17.25;100.00
498;BME280;39559;48.630;9.162;2022-08-19T08:18:27;97139.69;;;17.19;100.00
498;BME280;39559;48.630;9.162;2022-08-19T08:22:14;97144.44;;;17.14;100.00
498;BME280;39559;48.630;9.162;2022-08-19T08:25:04;97155.50;;;17.06;100.00
498;BME280;39559;48.630;9.162;2022-08-19T08:27:30;97149.97;;;16.98;100.00
498;BME280;39559;48.630;9.162;2022-08-19T08:29:57;97151.97;;;16.95;100.00
498;BME280;39559;48.630;9.162;2022-08-19T08:32:23;97148.06;;;17.00;100.00
498;BME280;39559;48.630;9.162;2022-08-19T08:34:49;97150.44;;;16.92;100.00
498;BME280;39559;48.630;9.162;2022-08-19T08:37:14;97148.53;;;16.94;100.00
498;BME280;39559;48.630;9.162;2022-08-19T08:39:40;97148.03;;;16.89;100.00
498;BME280;39559;48.630;9.162;2022-08-19T08:42:12;97143.50;;;16.91;100.00
498;BME280;39559;48.630;9.162;2022-08-19T08:46:14;97148.44;;;16.96;100.00
498;BME280;39559;48.630;9.162;2022-08-19T08:48:49;97152.19;;;16.92;100.00
498;BME280;39559;48.630;9.162;2022-08-19T08:51:29;97151.88;;;16.96;100.00
498;BME280;39559;48.630;9.162;2022-08-19T08:53:59;97151.41;;;17.02;100.00
498;BME280;39559;48.630;9.162;2022-08-19T08:56:25;97162.16;;;16.99;100.00
498;BME280;39559;48.630;9.162;2022-08-19T09:01:38;97167.41;;;16.99;100.00
498;BME280;39559;48.630;9.162;2022-08-19T09:04:05;97155.00;;;17.01;100.00
498;BME280;39559;48.630;9.162;2022-08-19T09:06:36;97159.28;;;17.02;100.00
498;BME280;39559;48.630;9.162;2022-08-19T09:15:22;97171.84;;;17.10;100.00
498;BME280;39559;48.630;9.162;2022-08-19T09:17:52;97174.13;;;17.15;100.00
498;BME280;39559;48.630;9.162;2022-08-19T09:20:20;97174.94;;;17.15;100.00
498;BME280;39559;48.630;9.162;2022-08-19T09:22:49;97169.47;;;17.18;100.00
498;BME280;39559;48.630;9.162;2022-08-19T09:25:19;97168.28;;;17.22;100.00
498;BME280;39559;48.630;9.162;2022-08-19T09:27:49;97172.22;;;17.17;100.00
498;BME280;39559;48.630;9.162;2022-08-19T09:30:21;97172.47;;;17.14;100.00
498;BME280;39559;48.630;9.162;2022-08-19T09:33:59;97175.69;;;17.17;100.00
498;BME280;39559;48.630;9.162;2022-08-19T09:36:27;97175.91;;;17.14;100.00
498;BME280;39559;48.630;9.162;2022-08-19T09:38:54;97173.44;;;17.24;100.00
498;BME280;39559;48.630;9.162;2022-08-19T09:41:22;97177.84;;;17.23;100.00
498;BME280;39559;48.630;9.162;2022-08-19T09:43:50;97175.03;;;17.38;100.00
498;BME280;39559;48.630;9.162;2022-08-19T09:46:23;97179.19;;;17.29;100.00
498;BME280;39559;48.630;9.162;2022-08-19T09:48:49;97184.44;;;17.29;100.00
498;BME280;39559;48.630;9.162;2022-08-19T09:51:18;97184.31;;;17.31;100.00
498;BME280;39559;48.630;9.162;2022-08-19T09:53:45;97182.53;;;17.31;100.00
498;BME280;39559;48.630;9.162;2022-08-19T09:57:54;97187.44;;;17.36;100.00
498;BME280;39559;48.630;9.162;2022-08-19T10:00:20;97188.88;;;17.40;100.00
498;BME280;39559;48.630;9.162;2022-08-19T10:02:46;97182.31;;;17.45;100.00
498;BME280;39559;48.630;9.162;2022-08-19T10:05:11;97189.38;;;17.45;100.00
498;BME280;39559;48.630;9.162;2022-08-19T10:07:55;97185.78;;;17.46;100.00
498;BME280;39559;48.630;9.162;2022-08-19T10:10:21;97182.44;;;17.44;100.00
498;BME280;39559;48.630;9.162;2022-08-19T10:12:47;97183.03;;;17.48;100.00
498;BME280;39559;48.630;9.162;2022-08-19T10:15:14;97182.72;;;17.52;100.00
498;BME280;39559;48.630;9.162;2022-08-19T10:17:40;97191.19;;;17.56;100.00
498;BME280;39559;48.630;9.162;2022-08-19T10:21:50;97191.91;;;17.58;100.00
498;BME280;39559;48.630;9.162;2022-08-19T10:24:16;97189.16;;;17.59;100.00
498;BME280;39559;48.630;9.162;2022-08-19T10:26:41;97192.41;;;17.63;100.00
498;BME280;39559;48.630;9.162;2022-08-19T10:29:10;97185.34;;;17.63;100.00
498;BME280;39559;48.630;9.162;2022-08-19T10:31:37;97182.50;;;17.67;100.00
498;BME280;39559;48.630;9.162;2022-08-19T10:34:02;97186.34;;;17.74;100.00
498;BME280;39559;48.630;9.162;2022-08-19T10:36:34;97178.81;;;17.92;100.00
498;BME280;39559;48.630;9.162;2022-08-19T10:39:05;97188.38;;;17.81;100.00
498;BME280;39559;48.630;9.162;2022-08-19T10:41:33;97186.19;;;17.75;100.00
498;BME280;39559;48.630;9.162;2022-08-19T10:45:54;97177.59;;;17.73;100.00
498;BME280;39559;48.630;9.162;2022-08-19T10:48:27;97185.16;;;17.89;100.00
498;BME280;39559;48.630;9.162;2022-08-19T10:50:54;97176.81;;;17.95;100.00
498;BME280;39559;48.630;9.162;2022-08-19T10:53:38;97176.47;;;18.00;100.00
498;BME280;39559;48.630;9.162;2022-08-19T10:56:03;97176.81;;;18.07;100.00
498;BME280;39559;48.630;9.162;2022-08-19T10:58:47;97174.06;;;17.97;100.00
498;BME280;39559;48.630;9.162;2022-08-19T11:01:14;97170.13;;;18.02;100.00
498;BME280;39559;48.630;9.162;2022-08-19T11:03:39;97172.63;;;18.04;100.00
498;BME280;39559;48.630;9.162;2022-08-19T11:06:07;97177.28;;;18.00;100.00
498;BME280;39559;48.630;9.162;2022-08-19T11:09:42;97173.94;;;17.98;100.00
498;BME280;39559;48.630;9.162;2022-08-19T11:12:09;97172.63;;;18.04;100.00
498;BME280;39559;48.630;9.162;2022-08-19T11:14:35;97175.84;;;18.08;100.00
498;BME280;39559;48.630;9.162;2022-08-19T11:17:02;97170.13;;;18.14;100.00
498;BME280;39559;48.630;9.162;2022-08-19T11:19:28;97169.66;;;18.20;100.00
498;BME280;39559;48.630;9.162;2022-08-19T11:21:54;97175.47;;;18.35;100.00
498;BME280;39559;48.630;9.162;2022-08-19T11:24:23;97172.53;;;18.28;100.00
498;BME280;39559;48.630;9.162;2022-08-19T11:26:51;97168.22;;;18.16;100.00
498;BME280;39559;48.630;9.162;2022-08-19T11:29:19;97169.53;;;18.10;100.00
498;BME280;39559;48.630;9.162;2022-08-19T11:33:38;97165.22;;;18.09;100.00
498;BME280;39559;48.630;9.162;2022-08-19T11:36:04;97171.56;;;18.07;100.00
498;BME280;39559;48.630;9.162;2022-08-19T11:38:30;97162.84;;;17.95;100.00
498;BME280;39559;48.630;9.162;2022-08-19T11:40:57;97173.94;;;17.98;100.00
498;BME280;39559;48.630;9.162;2022-08-19T11:43:23;97167.50;;;17.91;100.00
498;BME280;39559;48.630;9.162;2022-08-19T11:45:49;97172.28;;;17.97;100.00
498;BME280;39559;48.630;9.162;2022-08-19T11:48:15;97178.81;;;17.92;100.00
498;BME280;39559;48.630;9.162;2022-08-19T11:50:43;97176.34;;;17.90;100.00
498;BME280;39559;48.630;9.162;2022-08-19T11:53:09;97174.44;;;17.92;100.00
498;BME280;39559;48.630;9.162;2022-08-19T11:57:33;97157.72;;;18.05;100.00
498;BME280;39559;48.630;9.162;2022-08-19T11:59:59;97163.44;;;18.10;100.00
498;BME280;39559;48.630;9.162;2022-08-19T12:02:24;97155.31;;;18.13;100.00
498;BME280;39559;48.630;9.162;2022-08-19T12:04:50;97160.81;;;18.21;100.00
498;BME280;39559;48.630;9.162;2022-08-19T12:07:16;97163.06;;;18.26;100.00
498;BME280;39559;48.630;9.162;2022-08-19T12:09:41;97167.13;;;18.30;100.00
498;BME280;39559;48.630;9.162;2022-08-19T12:12:08;97166.06;;;18.32;100.00
498;BME280;39559;48.630;9.162;2022-08-19T12:14:34;97170.59;;;18.30;100.00
498;BME280;39559;48.630;9.162;2022-08-19T12:17:03;97171.44;;;18.31;100.00
498;BME280;39559;48.630;9.162;2022-08-19T12:21:32;97163.91;;;18.37;100.00
498;BME280;39559;48.630;9.162;2022-08-19T12:24:00;97168.16;;;18.50;100.00
498;BME280;39559;48.630;9.162;2022-08-19T12:26:27;97163.41;;;18.44;100.00
498;BME280;39559;48.630;9.162;2022-08-19T12:28:53;97171.53;;;18.40;100.00
498;BME280;39559;48.630;9.162;2022-08-19T12:31:19;97164.81;;;18.48;100.00
498;BME280;39559;48.630;9.162;2022-08-19T12:33:45;97170.19;;;18.57;100.00
498;BME280;39559;48.630;9.162;2022-08-19T12:36:13;97159.75;;;18.67;100.00
498;BME280;39559;48.630;9.162;2022-08-19T12:38:40;97165.03;;;18.67;100.00
498;BME280;39559;48.630;9.162;2022-08-19T12:41:08;97156.69;;;18.51;100.00
498;BME280;39559;48.630;9.162;2022-08-19T12:45:23;97164.34;;;18.54;100.00
498;BME280;39559;48.630;9.162;2022-08-19T12:47:49;97165.78;;;18.35;100.00
498;BME280;39559;48.630;9.162;2022-08-19T12:50:15;97166.03;;;18.44;100.00
498;BME280;39559;48.630;9.162;2022-08-19T12:52:41;97165.09;;;18.45;100.00
498;BME280;39559;48.630;9.162;2022-08-19T12:55:08;97159.09;;;18.54;100.00
498;BME280;39559;48.630;9.162;2022-08-19T12:57:34;97166.75;;;18.46;100.00
498;BME280;39559;48.630;9.162;2022-08-19T13:02:35;97168.88;;;18.52;100.00
498;BME280;39559;48.630;9.162;2022-08-19T13:05:01;97167.22;;;18.51;100.00
498;BME280;39559;48.630;9.162;2022-08-19T13:09:22;97173.91;;;18.44;100.00
498;BME280;39559;48.630;9.162;2022-08-19T13:11:47;97167.34;;;18.49;100.00
498;BME280;39559;48.630;9.162;2022-08-19T13:14:13;97172.63;;;18.38;100.00
498;BME280;39559;48.630;9.162;2022-08-19T13:16:38;97165.34;;;18.30;100.00
498;BME280;39559;48.630;9.162;2022-08-19T13:19:05;97169.41;;;18.23;100.00
498;BME280;39559;48.630;9.162;2022-08-19T13:21:33;97183.09;;;18.49;100.00
498;BME280;39559;48.630;9.162;2022-08-19T13:23:58;97186.09;;;18.33;100.00
498;BME280;39559;48.630;9.162;2022-08-19T13:26:24;97187.69;;;18.36;100.00
498;BME280;39559;48.630;9.162;2022-08-19T13:28:50;97188.88;;;18.20;100.00
498;BME280;39559;48.630;9.162;2022-08-19T13:33:18;97185.16;;;18.12;100.00
498;BME280;39559;48.630;9.162;2022-08-19T13:38:10;97176.34;;;18.01;100.00
498;BME280;39559;48.630;9.162;2022-08-19T13:40:36;97184.56;;;17.97;100.00
498;BME280;39559;48.630;9.162;2022-08-19T13:43:04;97186.06;;;17.77;100.00
498;BME280;39559;48.630;9.162;2022-08-19T13:45:31;97179.09;;;18.00;100.00
498;BME280;39559;48.630;9.162;2022-08-19T13:48:00;97180.19;;;17.97;100.00
498;BME280;39559;48.630;9.162;2022-08-19T13:50:28;97181.81;;;17.87;100.00
498;BME280;39559;48.630;9.162;2022-08-19T13:52:59;97185.16;;;18.00;100.00
498;BME280;39559;48.630;9.162;2022-08-19T13:57:13;97191.88;;;18.05;100.00
498;BME280;39559;48.630;9.162;2022-08-19T13:59:39;97194.97;;;18.10;100.00
498;BME280;39559;48.630;9.162;2022-08-19T14:02:05;97197.97;;;18.05;100.00
498;BME280;39559;48.630;9.162;2022-08-19T14:04:30;97196.66;;;17.99;100.00
498;BME280;39559;48.630;9.162;2022-08-19T14:06:56;97201.38;;;17.83;100.00
498;BME280;39559;48.630;9.162;2022-08-19T14:09:21;97194.16;;;17.62;100.00
498;BME280;39559;48.630;9.162;2022-08-19T14:11:47;97191.44;;;17.64;100.00
498;BME280;39559;48.630;9.162;2022-08-19T14:14:13;97197.75;;;17.61;100.00
498;BME280;39559;48.630;9.162;2022-08-19T14:16:38;97188.22;;;17.72;100.00
498;BME280;39559;48.630;9.162;2022-08-19T14:21:16;97194.53;;;17.58;100.00
498;BME280;39559;48.630;9.162;2022-08-19T14:23:42;97193.34;;;17.62;100.00
498;BME280;39559;48.630;9.162;2022-08-19T14:26:12;97188.91;;;17.51;100.00
498;BME280;39559;48.630;9.162;2022-08-19T14:28:39;97183.31;;;17.67;100.00
498;BME280;39559;48.630;9.162;2022-08-19T14:31:11;97179.88;;;17.67;100.00